Terminal Aerodrome Forecast
Issued by NWS Rapid City, SD

Home | Current Version | Previous Version | Graphics & Text | Print | Product List | Glossary On
Versions: 1 2 3 4 5 6 7 8 9 10 11 12 13 14 15 16 17
113
FTUS43 KUNR 030300 AAB
TAFRAP
TAF AMD
KRAP 030300Z 0303/0324 36008KT P6SM -SN OVC020
     FM030600 35008KT P6SM OVC030
     FM030900 33006KT P6SM BKN060=

USA.gov is the U.S. government's official web portal to all federal, state and local government web resources and services.